Time;durP1;ratioP1;P1;durP2;ratioP2;P2;SDS_P1;SDS_P2;PMS_P1;PMS_P2;Temp;Humidity;BMP_temperature;BMP_pressure;BME280_temperature;BME280_humidity;BME280_pressure;Samples;Min_cycle;Max_cycle;Signal;HPM_P1;HPM_P2
2021/07/12 00:01:46;;;;;;;9.60;8.77;;;;;;;21.70;72.82;100126.69;4900319;28;101385;-84
2021/07/12 00:04:12;;;;;;;8.43;7.82;;;;;;;21.69;72.87;100143.69;4915163;28;96774;-84
2021/07/12 00:06:38;;;;;;;8.70;8.00;;;;;;;21.76;72.92;100136.00;4900173;28;97359;-84
2021/07/12 00:09:05;;;;;;;8.95;8.32;;;;;;;21.67;73.61;100124.25;4914713;28;98042;-85
2021/07/12 00:11:31;;;;;;;9.00;8.00;;;;;;;21.78;72.60;100121.53;4916067;28;100494;-84
2021/07/12 00:13:56;;;;;;;9.43;8.50;;;;;;;21.69;72.92;100123.16;4915380;28;98054;-86
2021/07/12 00:16:22;;;;;;;9.18;8.30;;;;;;;21.63;73.26;100114.81;4903315;28;96869;-84
2021/07/12 00:18:48;;;;;;;9.25;8.50;;;;;;;21.60;73.30;100118.59;4902878;28;101294;-85
2021/07/12 00:21:14;;;;;;;8.43;7.82;;;;;;;21.49;73.56;100102.59;4918293;28;101343;-84
2021/07/12 00:23:39;;;;;;;9.48;8.52;;;;;;;21.58;73.47;100104.50;4902566;28;96601;-84
2021/07/12 00:26:05;;;;;;;8.50;7.85;;;;;;;21.64;73.25;100112.03;4902709;28;97131;-84
2021/07/12 00:28:31;;;;;;;9.02;8.23;;;;;;;21.61;73.10;100106.94;4914721;28;101643;-84
2021/07/12 00:30:57;;;;;;;8.20;7.60;;;;;;;21.67;72.86;100121.59;4908701;28;101355;-84
2021/07/12 00:33:22;;;;;;;8.88;8.18;;;;;;;21.57;73.29;100118.00;4901907;28;96594;-84
2021/07/12 00:35:48;;;;;;;8.07;7.50;;;;;;;21.61;72.88;100114.97;4896765;28;96875;-84
2021/07/12 00:38:14;;;;;;;8.88;7.95;;;;;;;21.69;72.73;100122.31;4882317;28;100650;-84
2021/07/12 00:40:39;;;;;;;8.35;7.68;;;;;;;21.58;73.26;100125.88;4892311;28;101082;-84
2021/07/12 00:43:05;;;;;;;10.15;7.80;;;;;;;21.55;73.16;100123.44;4898691;28;97433;-84
2021/07/12 00:45:32;;;;;;;8.60;7.75;;;;;;;21.43;73.45;100111.13;4883821;28;97182;-84
2021/07/12 00:47:59;;;;;;;8.75;7.95;;;;;;;21.64;72.83;100124.50;4897764;28;101305;-84
2021/07/12 00:50:29;;;;;;;9.07;8.30;;;;;;;21.72;72.50;100131.91;4899510;28;98114;-85
2021/07/12 00:52:55;;;;;;;9.93;7.90;;;;;;;21.51;73.06;100130.03;4898934;28;96609;-84
2021/07/12 00:55:33;;;;;;;17.85;9.27;;;;;;;21.48;73.37;100135.63;4898910;28;96934;-85
2021/07/12 00:58:05;;;;;;;11.65;9.95;;;;;;;21.47;73.21;100129.44;4914616;28;101546;-85
2021/07/12 01:00:31;;;;;;;9.98;8.50;;;;;;;21.48;73.45;100138.31;4882896;28;101700;-85
2021/07/12 01:02:57;;;;;;;11.98;8.52;;;;;;;21.42;73.62;100128.13;4898423;28;96632;-83
2021/07/12 01:05:29;;;;;;;9.88;8.80;;;;;;;21.48;73.35;100136.47;4883506;28;96880;-85
2021/07/12 01:07:55;;;;;;;;;;;;;;;21.37;73.95;100143.69;4883511;28;100569;-84
2021/07/12 01:10:22;;;;;;;10.23;8.27;;;;;;;21.34;74.21;100144.72;4899124;28;100135;-84
2021/07/12 01:13:02;;;;;;;12.07;8.77;;;;;;;21.31;73.35;100120.97;4882866;28;96931;-85
2021/07/12 01:15:33;;;;;;;12.15;9.07;;;;;;;21.42;73.30;100141.47;4914713;28;96866;-84
2021/07/12 01:18:27;;;;;;;18.58;10.70;;;;;;;21.37;73.59;100152.53;4882140;28;102064;-84
2021/07/12 01:21:37;;;;;;;16.10;8.80;;;;;;;21.48;73.50;100151.66;4914850;28;98082;-83
2021/07/12 01:24:34;;;;;;;16.38;9.68;;;;;;;21.50;73.17;100146.16;4914069;28;96565;-84
2021/07/12 01:27:21;;;;;;;10.60;9.50;;;;;;;21.46;73.30;100142.91;4882025;28;96757;-84
2021/07/12 01:30:10;;;;;;;12.43;9.57;;;;;;;21.32;73.64;100121.81;4914478;28;101667;-85
2021/07/12 01:32:59;;;;;;;14.27;10.43;;;;;;;21.24;74.27;100127.78;4898791;28;97084;-85
2021/07/12 01:35:40;;;;;;;15.07;10.15;;;;;;;21.14;74.67;100138.34;4914430;28;96729;-84
2021/07/12 01:38:32;;;;;;;12.30;9.93;;;;;;;21.24;74.17;100138.47;4914085;28;96622;-84
2021/07/12 01:41:17;;;;;;;17.65;11.02;;;;;;;21.29;73.85;100132.75;4883025;28;101987;-85
2021/07/12 01:43:50;;;;;;;12.48;10.55;;;;;;;21.31;73.84;100128.13;4882461;28;101318;-84
2021/07/12 01:46:41;;;;;;;13.38;10.05;;;;;;;21.27;73.47;100094.66;4881605;28;96707;-85
2021/07/12 01:49:18;;;;;;;14.18;10.27;;;;;;;21.24;73.92;100103.78;4897261;28;96960;-85
2021/07/12 01:52:06;;;;;;;15.00;10.73;;;;;;;21.15;74.21;100093.84;4883035;28;100641;-85
2021/07/12 01:54:51;;;;;;;12.88;10.43;;;;;;;21.19;74.21;100082.78;4913607;28;100481;-85
2021/07/12 01:57:24;;;;;;;11.93;10.43;;;;;;;21.20;74.37;100086.28;4913724;28;96660;-84
2021/07/12 01:59:56;;;;;;;12.50;11.13;;;;;;;21.24;74.10;100082.41;4882616;28;96903;-85
2021/07/12 02:02:27;;;;;;;14.73;11.55;;;;;;;21.20;74.39;100073.78;4913433;28;102038;-84
2021/07/12 02:05:07;;;;;;;12.57;11.18;;;;;;;21.16;73.99;100037.66;4913916;28;101235;-82
2021/07/12 02:07:35;;;;;;;18.45;11.52;;;;;;;21.20;74.34;100064.94;4882431;28;97096;-84
2021/07/12 02:10:04;;;;;;;13.45;10.55;;;;;;;21.06;74.66;100066.09;4897459;28;96960;-83
2021/07/12 02:12:39;;;;;;;14.32;10.45;;;;;;;21.12;74.63;100078.06;4898444;28;98074;-84
2021/07/12 02:15:07;;;;;;;17.38;10.40;;;;;;;21.17;74.46;100068.72;4896838;28;101841;-83
2021/07/12 02:17:38;;;;;;;13.55;10.70;;;;;;;21.08;74.59;100061.47;4898492;28;97223;-84
2021/07/12 02:20:07;;;;;;;14.05;11.43;;;;;;;20.99;74.50;100044.38;4897223;28;96909;-83
2021/07/12 02:22:35;;;;;;;17.25;10.68;;;;;;;21.19;74.25;100065.94;4913613;28;97665;-84
2021/07/12 02:25:11;;;;;;;17.15;11.65;;;;;;;21.11;74.58;100071.88;4913376;28;100380;-83
2021/07/12 02:27:37;;;;;;;14.13;11.30;;;;;;;21.03;74.61;100069.00;4913766;28;96909;-84
2021/07/12 02:30:07;;;;;;;19.60;11.90;;;;;;;21.05;74.67;100072.38;4897659;28;97203;-82
2021/07/12 02:32:34;;;;;;;13.13;11.38;;;;;;;21.04;74.58;100070.69;4900880;28;98380;-84
2021/07/12 02:35:01;;;;;;;15.60;12.15;;;;;;;21.05;74.71;100068.88;4900226;28;101673;-82
2021/07/12 02:37:31;;;;;;;17.88;12.00;;;;;;;20.94;74.62;100054.59;4901128;28;97016;-84
2021/07/12 02:39:57;;;;;;;21.40;13.00;;;;;;;21.03;74.75;100069.88;4885048;28;96909;-83
2021/07/12 02:42:24;;;;;;;18.30;12.85;;;;;;;21.11;74.22;100079.03;4900242;28;101523;-84
2021/07/12 02:44:51;;;;;;;20.50;13.13;;;;;;;21.02;74.56;100060.13;4900369;28;100368;-86
2021/07/12 02:47:18;;;;;;;22.27;13.98;;;;;;;21.09;74.56;100089.88;4884013;28;96991;-84
2021/07/12 02:49:45;;;;;;;17.02;14.10;;;;;;;20.99;75.11;100086.22;4885331;28;96850;-84
2021/07/12 02:52:22;;;;;;;30.30;13.85;;;;;;;20.94;74.96;100075.06;4884153;28;98713;-84
2021/07/12 02:54:50;;;;;;;19.63;13.90;;;;;;;21.15;74.24;100088.50;4901058;28;101528;-84
2021/07/12 02:57:16;;;;;;;16.83;13.32;;;;;;;21.12;74.48;100078.94;4884283;28;97269;-84
2021/07/12 02:59:42;;;;;;;22.30;12.77;;;;;;;21.10;74.41;100080.03;4916948;28;96927;-84
2021/07/12 03:02:08;;;;;;;22.45;13.13;;;;;;;21.20;74.21;100070.28;4915217;28;101684;-84
2021/07/12 03:04:34;;;;;;;22.23;13.10;;;;;;;21.20;74.08;100057.78;4884334;28;100107;-84
2021/07/12 03:07:09;;;;;;;20.70;13.05;;;;;;;20.94;74.57;100043.06;4884718;28;96851;-84
2021/07/12 03:09:38;;;;;;;24.80;13.98;;;;;;;21.03;74.54;100074.31;4884856;28;96805;-84
2021/07/12 03:12:09;;;;;;;22.63;14.07;;;;;;;21.13;74.49;100077.09;4916115;28;100996;-83
2021/07/12 03:14:43;;;;;;;20.10;12.75;;;;;;;21.17;74.59;100078.53;4900877;28;99961;-85
2021/07/12 03:17:13;;;;;;;15.77;13.10;;;;;;;21.17;74.53;100067.88;4884054;28;96668;-83
2021/07/12 03:19:43;;;;;;;16.52;12.63;;;;;;;21.14;74.30;100052.09;4917437;28;96858;-84
2021/07/12 03:22:11;;;;;;;20.70;12.55;;;;;;;21.14;74.30;100044.94;4883915;28;101536;-83
2021/07/12 03:24:47;;;;;;;24.83;13.30;;;;;;;21.17;74.34;100049.19;4901420;28;98719;-85
2021/07/12 03:27:16;;;;;;;17.98;12.20;;;;;;;21.27;74.23;100066.16;4899256;28;96747;-84
2021/07/12 03:29:44;;;;;;;21.80;13.25;;;;;;;21.21;74.29;100069.31;4884759;28;96801;-84
2021/07/12 03:32:11;;;;;;;22.67;12.38;;;;;;;21.18;74.46;100070.41;4899149;28;101763;-83
2021/07/12 03:34:37;;;;;;;21.08;11.57;;;;;;;21.26;73.77;100080.44;4915594;28;100226;-85
2021/07/12 03:37:03;;;;;;;17.58;12.15;;;;;;;21.14;74.31;100082.31;4883905;28;97056;-84
2021/07/12 03:39:29;;;;;;;16.80;11.48;;;;;;;21.05;74.06;100069.72;4899520;28;96958;-85
2021/07/12 03:41:57;;;;;;;16.55;10.68;;;;;;;21.09;73.85;100070.31;4915501;28;98505;-84
2021/07/12 03:44:25;;;;;;;23.52;10.85;;;;;;;21.16;73.56;100083.03;4899657;28;101806;-84
2021/07/12 03:46:51;;;;;;;20.95;10.85;;;;;;;21.15;73.40;100081.34;4916316;28;96584;-84
2021/07/12 03:49:18;;;;;;;19.55;10.27;;;;;;;21.08;73.35;100072.13;4883603;28;96564;-84
2021/07/12 03:51:48;;;;;;;21.25;10.10;;;;;;;21.07;73.30;100098.97;4899335;28;101942;-84
2021/07/12 03:54:15;;;;;;;17.13;10.25;;;;;;;21.07;72.88;100106.97;4883713;28;100090;-83
2021/07/12 03:56:41;;;;;;;20.45;10.07;;;;;;;21.03;73.04;100115.22;4899977;28;97032;-85
2021/07/12 03:59:06;;;;;;;26.13;10.15;;;;;;;21.05;73.06;100103.56;4899600;28;97202;-85
2021/07/12 04:01:32;;;;;;;20.77;10.57;;;;;;;21.01;72.98;100097.63;4883301;28;100579;-85
2021/07/12 04:03:58;;;;;;;20.85;9.98;;;;;;;20.97;72.63;100057.03;4899572;28;101051;-85
2021/07/12 04:06:23;;;;;;;20.55;10.45;;;;;;;21.11;72.87;100085.22;4898942;28;97171;-85
2021/07/12 04:08:49;;;;;;;19.17;9.80;;;;;;;20.97;73.00;100066.81;4900204;28;96856;-85
2021/07/12 04:11:16;;;;;;;29.10;10.38;;;;;;;21.09;72.94;100095.19;4898745;28;101373;-85
2021/07/12 04:13:41;;;;;;;17.48;9.75;;;;;;;21.01;73.47;100077.13;4899170;28;101786;-85
2021/07/12 04:16:07;;;;;;;18.58;9.32;;;;;;;20.97;73.31;100062.38;4899226;28;96641;-85
2021/07/12 04:18:33;;;;;;;16.63;9.57;;;;;;;20.99;73.60;100073.72;4898920;28;96893;-85
2021/07/12 04:20:59;;;;;;;18.15;9.30;;;;;;;21.12;73.38;100078.06;4899155;28;100225;-85
2021/07/12 04:23:25;;;;;;;25.73;9.52;;;;;;;21.11;73.18;100095.91;4882484;28;100152;-85
2021/07/12 04:25:50;;;;;;;21.20;10.00;;;;;;;21.14;72.80;100103.66;4899202;28;96714;-85
2021/07/12 04:28:16;;;;;;;21.17;10.50;;;;;;;21.14;72.92;100097.47;4898405;28;96916;-85
2021/07/12 04:30:42;;;;;;;22.60;9.05;;;;;;;20.88;73.66;100105.75;4899450;28;100473;-85
2021/07/12 04:33:07;;;;;;;21.02;10.80;;;;;;;20.99;73.10;100116.41;4916152;28;98501;-85
2021/07/12 04:35:33;;;;;;;25.20;10.85;;;;;;;20.89;73.49;100088.81;4882787;28;96646;-85
2021/07/12 04:37:59;;;;;;;22.30;12.07;;;;;;;20.84;74.35;100116.81;4883498;28;96937;-85
2021/07/12 04:40:25;;;;;;;16.20;11.65;;;;;;;20.88;73.62;100099.59;4897820;28;100436;-85
2021/07/12 04:42:50;;;;;;;19.33;9.80;;;;;;;20.78;73.96;100055.00;4883063;28;99981;-85
2021/07/12 04:45:16;;;;;;;14.73;8.63;;;;;;;20.70;74.15;100041.41;4899088;28;96589;-85
2021/07/12 04:47:48;;;;;;;15.27;8.70;;;;;;;20.66;74.52;100033.81;4900260;28;96966;-85
2021/07/12 04:50:14;;;;;;;15.27;11.02;;;;;;;20.58;74.76;100013.09;4898300;28;101431;-84
2021/07/12 04:52:40;;;;;;;20.98;8.40;;;;;;;20.68;74.30;100018.50;4898310;28;100364;-85
2021/07/12 04:55:07;;;;;;;14.75;8.07;;;;;;;20.75;74.40;100017.06;4882975;28;97089;-86
2021/07/12 04:57:34;;;;;;;14.57;7.35;;;;;;;20.69;74.62;100023.72;4883214;28;96906;-86
2021/07/12 05:00:01;;;;;;;17.48;10.63;;;;;;;20.64;74.31;100019.75;4882925;28;99886;-86
2021/07/12 05:02:27;;;;;;;12.68;8.05;;;;;;;20.61;74.47;100054.66;4882313;28;101269;-86
2021/07/12 05:04:52;;;;;;;17.80;9.88;;;;;;;20.70;74.42;100053.91;4898720;28;96652;-86
2021/07/12 05:07:18;;;;;;;21.70;11.80;;;;;;;20.62;74.04;100040.34;4882371;28;96999;-85
2021/07/12 05:09:43;;;;;;;14.65;12.00;;;;;;;20.57;74.79;100035.41;4898833;28;101334;-86
2021/07/12 05:12:15;;;;;;;17.55;10.82;;;;;;;20.64;75.02;100052.59;4882700;28;101880;-86
2021/07/12 05:14:41;;;;;;;19.08;9.27;;;;;;;20.56;75.33;100052.34;4882930;28;97083;-86
2021/07/12 05:17:07;;;;;;;15.50;8.77;;;;;;;20.69;75.17;100057.56;4913862;28;96834;-87
2021/07/12 05:19:33;;;;;;;16.05;8.25;;;;;;;20.63;75.86;100060.72;4915447;28;101270;-85
2021/07/12 05:21:59;;;;;;;16.98;8.43;;;;;;;20.61;75.85;100057.31;4921906;28;100883;-85
2021/07/12 05:24:25;;;;;;;10.52;7.28;;;;;;;20.72;75.73;100057.31;4893952;28;97140;-85
2021/07/12 05:26:50;;;;;;;12.70;6.30;;;;;;;20.69;75.37;100042.41;4920225;28;97227;-86
2021/07/12 05:29:18;;;;;;;13.30;7.13;;;;;;;20.62;75.53;100032.34;4910242;28;97562;-84
2021/07/12 05:31:44;;;;;;;11.60;6.78;;;;;;;20.87;75.38;100063.22;4904918;28;98064;-85
2021/07/12 05:34:10;;;;;;;12.93;6.80;;;;;;;20.92;75.19;100055.69;4911221;28;97192;-85
2021/07/12 05:36:35;;;;;;;13.52;6.80;;;;;;;21.00;75.00;100061.22;4913026;28;97462;-85
2021/07/12 05:39:01;;;;;;;9.07;6.55;;;;;;;21.16;74.90;100071.53;4892983;28;101204;-84
2021/07/12 05:41:27;;;;;;;13.10;6.93;;;;;;;21.16;74.88;100072.38;4905428;28;98345;-85
2021/07/12 05:43:52;;;;;;;20.60;7.55;;;;;;;21.16;74.40;100064.34;4894697;28;97193;-85
2021/07/12 05:46:18;;;;;;;11.98;6.72;;;;;;;21.15;74.62;100073.34;4911325;28;97012;-84
2021/07/12 05:48:44;;;;;;;11.68;6.72;;;;;;;21.15;74.67;100084.03;4878917;28;100047;-84
2021/07/12 05:51:09;;;;;;;9.77;6.95;;;;;;;20.85;74.93;100050.00;4896091;28;97145;-84
2021/07/12 05:53:35;;;;;;;8.95;6.88;;;;;;;21.00;75.11;100090.59;4894574;28;96844;-85
2021/07/12 05:56:01;;;;;;;9.05;6.88;;;;;;;21.06;74.52;100090.13;4896089;28;97304;-85
2021/07/12 05:58:26;;;;;;;10.80;7.00;;;;;;;21.13;74.20;100090.44;4895223;28;101748;-85
2021/07/12 06:00:52;;;;;;;10.90;7.00;;;;;;;21.03;74.55;100093.88;4879522;28;101012;-85
2021/07/12 06:03:18;;;;;;;15.45;7.45;;;;;;;21.07;74.04;100091.78;4896351;28;96892;-84
2021/07/12 06:05:44;;;;;;;7.72;6.85;;;;;;;21.14;74.63;100103.66;4896962;28;97244;-85
2021/07/12 06:08:09;;;;;;;8.93;7.10;;;;;;;20.94;75.11;100096.41;4898964;28;101471;-83
2021/07/12 06:10:35;;;;;;;13.15;8.20;;;;;;;21.08;75.06;100100.66;4898254;28;100931;-85
2021/07/12 06:13:01;;;;;;;13.23;9.68;;;;;;;21.06;75.32;100115.91;4898428;28;97341;-84
2021/07/12 06:15:27;;;;;;;19.13;10.65;;;;;;;20.99;75.24;100104.91;4898765;28;97009;-85
2021/07/12 06:17:52;;;;;;;17.42;10.82;;;;;;;20.95;75.74;100117.66;4914604;28;100508;-83
2021/07/12 06:20:18;;;;;;;11.45;10.10;;;;;;;20.88;75.37;100104.91;4883310;28;100885;-83
2021/07/12 06:22:45;;;;;;;13.13;10.10;;;;;;;20.75;75.59;100068.56;4915355;28;97005;-84
2021/07/12 06:25:11;;;;;;;12.02;10.80;;;;;;;20.95;75.05;100092.81;4882798;28;97387;-83
2021/07/12 06:27:39;;;;;;;12.50;11.20;;;;;;;20.87;75.21;100096.06;4883381;28;102094;-84
2021/07/12 06:30:06;;;;;;;15.05;12.00;;;;;;;21.01;75.09;100113.66;4899549;28;101799;-83
2021/07/12 06:32:32;;;;;;;15.70;11.77;;;;;;;20.94;75.44;100115.09;4883046;28;97368;-83
2021/07/12 06:34:58;;;;;;;19.88;15.75;;;;;;;20.85;75.61;100110.50;4883573;28;97431;-84
2021/07/12 06:37:23;;;;;;;17.30;15.35;;;;;;;20.73;76.77;100123.00;4898229;28;101381;-83
2021/07/12 06:39:49;;;;;;;16.63;14.57;;;;;;;20.76;76.36;100131.59;4915098;28;99520;-83
2021/07/12 06:42:14;;;;;;;17.67;14.80;;;;;;;20.62;76.87;100101.66;4902345;28;97285;-84
2021/07/12 06:44:40;;;;;;;16.05;14.40;;;;;;;20.75;76.64;100115.75;4898584;28;97359;-84
2021/07/12 06:47:06;;;;;;;23.10;17.77;;;;;;;20.83;76.39;100109.78;4901380;28;101405;-83
2021/07/12 06:49:32;;;;;;;15.32;13.82;;;;;;;20.84;76.42;100111.50;4910316;28;98304;-83
2021/07/12 06:51:57;;;;;;;15.82;13.65;;;;;;;20.91;76.17;100118.00;4924339;28;97284;-84
2021/07/12 06:54:23;;;;;;;15.38;13.85;;;;;;;20.82;76.56;100105.41;4914913;28;97029;-82
2021/07/12 06:56:48;;;;;;;19.80;14.50;;;;;;;21.09;75.73;100113.00;4896661;28;100566;-84
2021/07/12 06:59:15;;;;;;;14.77;13.30;;;;;;;20.89;76.29;100115.47;4889347;28;101173;-84
2021/07/12 07:01:42;;;;;;;14.50;12.93;;;;;;;21.07;75.32;100104.31;4895828;28;96802;-84
2021/07/12 07:04:07;;;;;;;18.45;14.38;;;;;;;20.87;75.71;100100.56;4926690;28;96922;-84
2021/07/12 07:06:33;;;;;;;17.35;12.93;;;;;;;20.72;76.69;100114.16;4915127;28;101053;-84
2021/07/12 07:08:59;;;;;;;18.42;13.55;;;;;;;20.61;77.50;100114.16;4916825;28;101142;-84
2021/07/12 07:11:24;;;;;;;19.90;13.82;;;;;;;20.62;77.41;100101.66;4902836;28;96854;-83
2021/07/12 07:13:50;;;;;;;18.77;14.85;;;;;;;20.76;76.75;100104.94;4910650;28;97017;-84
2021/07/12 07:16:16;;;;;;;16.95;15.25;;;;;;;20.83;76.24;100105.31;4923810;28;101131;-84
2021/07/12 07:18:42;;;;;;;17.95;13.02;;;;;;;20.87;76.00;100101.41;4907228;28;101224;-84
2021/07/12 07:21:09;;;;;;;11.63;10.23;;;;;;;20.83;76.03;100097.31;4923391;28;96709;-83
2021/07/12 07:23:35;;;;;;;11.95;10.77;;;;;;;20.93;76.05;100103.59;4909467;28;96897;-84
2021/07/12 07:26:00;;;;;;;14.88;11.20;;;;;;;20.87;75.74;100096.06;4900375;28;101331;-84
2021/07/12 07:28:26;;;;;;;12.80;10.27;;;;;;;20.68;76.53;100074.50;4916670;28;101702;-83
2021/07/12 07:30:52;;;;;;;12.48;11.23;;;;;;;20.90;76.38;100103.00;4906153;28;97096;-83
2021/07/12 07:33:19;;;;;;;10.65;9.45;;;;;;;20.87;75.79;100090.75;4920980;28;97027;-83
2021/07/12 07:35:45;;;;;;;11.52;10.38;;;;;;;20.99;75.55;100112.91;4891428;28;100424;-83
2021/07/12 07:38:10;;;;;;;10.80;9.70;;;;;;;20.79;75.98;100091.34;4912065;28;101447;-84
2021/07/12 07:40:36;;;;;;;14.05;10.13;;;;;;;21.22;74.96;100124.41;4907783;28;97203;-83
2021/07/12 07:43:03;;;;;;;10.52;9.48;;;;;;;21.10;74.83;100104.03;4892570;28;97524;-83
2021/07/12 07:45:31;;;;;;;12.27;10.07;;;;;;;21.01;74.43;100118.97;4908523;28;98524;-85
2021/07/12 07:47:57;;;;;;;12.73;11.25;;;;;;;20.91;74.87;100134.88;4905145;28;100074;-84
2021/07/12 07:50:23;;;;;;;16.05;10.57;;;;;;;20.80;75.71;100134.91;4906930;28;96879;-83
2021/07/12 07:52:50;;;;;;;14.65;12.15;;;;;;;20.69;75.84;100124.22;4893615;28;96823;-83
2021/07/12 07:55:15;;;;;;;11.60;10.50;;;;;;;20.77;76.01;100133.31;4906590;28;101623;-83
2021/07/12 07:57:42;;;;;;;10.90;9.80;;;;;;;20.72;76.48;100135.50;4899751;28;101883;-84
2021/07/12 08:00:13;;;;;;;12.35;11.00;;;;;;;20.84;76.11;100122.16;4909611;28;96909;-84
2021/07/12 08:02:39;;;;;;;11.95;10.77;;;;;;;20.95;75.65;100147.00;4919273;28;96628;-84
2021/07/12 08:05:06;;;;;;;12.40;11.20;;;;;;;20.89;75.51;100128.81;4895399;28;101402;-84
2021/07/12 08:07:33;;;;;;;10.60;9.70;;;;;;;20.90;75.74;100117.16;4882574;28;100525;-83
2021/07/12 08:09:59;;;;;;;10.43;8.98;;;;;;;20.91;75.21;100099.34;4921643;28;97180;-83
2021/07/12 08:12:24;;;;;;;9.63;8.63;;;;;;;21.15;74.37;100118.72;4897769;28;97139;-83
2021/07/12 08:14:50;;;;;;;9.75;8.50;;;;;;;21.29;74.24;100119.38;4895128;28;100581;-83
2021/07/12 08:17:15;;;;;;;11.10;8.88;;;;;;;21.30;74.29;100110.44;4896818;28;101222;-83
2021/07/12 08:19:41;;;;;;;11.98;8.10;;;;;;;21.40;74.47;100130.06;4915432;28;97070;-83
2021/07/12 08:22:07;;;;;;;9.93;8.93;;;;;;;21.55;73.44;100109.25;4896251;28;96772;-82
2021/07/12 08:24:33;;;;;;;8.88;8.10;;;;;;;21.53;73.58;100096.06;4915859;28;101409;-83
2021/07/12 08:27:01;;;;;;;19.23;8.70;;;;;;;21.41;73.21;100078.34;4899983;28;101011;-83
2021/07/12 08:29:27;;;;;;;10.23;8.43;;;;;;;21.43;72.57;100081.75;4913259;28;96806;-83
2021/07/12 08:31:52;;;;;;;9.20;8.30;;;;;;;21.48;72.50;100071.56;4880967;28;97715;-82
2021/07/12 08:34:18;;;;;;;9.68;8.77;;;;;;;21.72;72.24;100098.00;4896815;28;101184;-84
2021/07/12 08:36:43;;;;;;;9.48;8.68;;;;;;;21.76;72.84;100106.59;4897096;28;100159;-83
2021/07/12 08:39:10;;;;;;;10.10;9.18;;;;;;;21.68;72.76;100117.97;4897742;28;96804;-83
2021/07/12 08:41:37;;;;;;;8.70;8.00;;;;;;;21.73;72.78;100136.25;4896234;28;97066;-83
2021/07/12 08:44:04;;;;;;;10.77;8.73;;;;;;;21.54;72.92;100095.06;4879378;28;101512;-83
2021/07/12 08:46:29;;;;;;;10.02;9.13;;;;;;;21.75;73.56;100127.13;4918913;28;100396;-83
2021/07/12 08:48:55;;;;;;;10.40;9.55;;;;;;;21.74;73.35;100100.56;4912576;28;96803;-84
2021/07/12 08:51:21;;;;;;;11.93;10.93;;;;;;;22.04;72.56;100118.50;4902707;28;96915;-84
2021/07/12 08:53:47;;;;;;;11.68;10.82;;;;;;;22.33;71.58;100124.03;4898251;28;101387;-84
2021/07/12 08:56:14;;;;;;;11.88;10.88;;;;;;;22.56;70.88;100122.06;4882265;28;101060;-84
2021/07/12 08:58:39;;;;;;;9.88;8.98;;;;;;;22.72;69.95;100113.50;4885331;28;97206;-81
2021/07/12 09:01:08;;;;;;;9.98;9.20;;;;;;;22.85;69.25;100127.50;4880663;28;96905;-82
2021/07/12 09:03:51;;;;;;;10.23;9.23;;;;;;;22.79;68.42;100112.84;4894728;28;101187;-81
2021/07/12 09:06:25;;;;;;;10.27;9.50;;;;;;;23.02;68.62;100118.03;4907010;28;98405;-81
2021/07/12 09:08:55;;;;;;;24.17;10.30;;;;;;;22.98;68.94;100119.25;4910960;28;97344;-81
2021/07/12 09:11:30;;;;;;;12.10;9.88;;;;;;;22.95;68.85;100108.84;4911471;28;96883;-83
2021/07/12 09:14:04;;;;;;;9.95;9.10;;;;;;;23.13;67.13;100099.16;4895321;28;100498;-82
2021/07/12 09:16:49;;;;;;;8.77;8.18;;;;;;;23.32;66.39;100090.31;4884580;28;101841;-82
2021/07/12 09:19:25;;;;;;;9.25;7.65;;;;;;;23.51;66.77;100100.19;4899550;28;96764;-83
2021/07/12 09:22:02;;;;;;;7.55;6.93;;;;;;;24.11;64.96;100092.81;4916596;28;96942;-82
2021/07/12 09:24:55;;;;;;;7.90;7.30;;;;;;;24.21;63.65;100095.47;4911209;28;98025;-83
2021/07/12 09:27:26;;;;;;;7.80;7.10;;;;;;;24.56;63.57;100080.56;4889230;28;101684;-82
2021/07/12 09:30:14;;;;;;;;;;;;;;;24.76;62.88;100084.84;4910477;28;97158;-82
2021/07/12 09:32:45;;;;;;;7.15;6.55;;;;;;;25.25;61.14;100081.91;4917695;28;96824;-82
2021/07/12 09:35:12;;;;;;;6.85;6.35;;;;;;;25.57;59.78;100092.09;4911373;28;98129;-82
2021/07/12 09:37:40;;;;;;;8.30;7.65;;;;;;;25.89;59.02;100069.19;4909867;28;101165;-82
2021/07/12 09:40:12;;;;;;;6.60;6.10;;;;;;;26.48;58.07;100090.91;4894204;28;97432;-82
2021/07/12 09:42:50;;;;;;;6.88;6.22;;;;;;;26.64;56.59;100077.53;4908969;28;96884;-81
2021/07/12 09:45:23;;;;;;;7.32;6.72;;;;;;;26.82;55.50;100080.13;4899816;28;98703;-83
2021/07/12 09:47:50;;;;;;;6.45;5.95;;;;;;;26.16;55.80;100078.97;4898373;28;101644;-84
2021/07/12 09:50:21;;;;;;;5.80;5.28;;;;;;;25.52;58.12;100080.97;4879850;28;96800;-83
2021/07/12 09:52:52;;;;;;;8.10;7.50;;;;;;;25.00;60.05;100078.06;4894746;28;96964;-84
2021/07/12 09:55:23;;;;;;;8.00;7.40;;;;;;;24.90;61.22;100078.13;4910390;28;101110;-84
2021/07/12 09:58:16;;;;;;;7.53;6.93;;;;;;;25.14;59.19;100074.91;4908987;28;100441;-84
2021/07/12 10:00:59;;;;;;;9.68;8.90;;;;;;;24.69;60.67;100072.16;4894423;28;98737;-84
2021/07/12 10:03:25;;;;;;;9.27;8.50;;;;;;;24.65;61.93;100076.97;4910236;28;97053;-83
2021/07/12 10:05:52;;;;;;;8.90;8.30;;;;;;;25.24;58.90;100064.91;4907841;28;101306;-83
2021/07/12 10:08:17;;;;;;;9.20;8.23;;;;;;;25.02;59.37;100074.25;4895209;28;98458;-80
2021/07/12 10:10:44;;;;;;;9.50;8.80;;;;;;;24.52;60.38;100077.34;4899980;28;97853;-80
2021/07/12 10:13:10;;;;;;;9.85;9.05;;;;;;;23.97;62.19;100081.69;4895247;28;97184;-82
2021/07/12 10:15:35;;;;;;;9.48;8.88;;;;;;;23.69;63.40;100078.91;4889064;28;101962;-77
2021/07/12 10:18:01;;;;;;;9.80;8.93;;;;;;;23.26;65.55;100080.16;4895940;28;97312;-77
2021/07/12 10:20:27;;;;;;;9.15;8.55;;;;;;;23.25;64.95;100075.78;4893718;28;97066;-77
2021/07/12 10:22:57;;;;;;;8.95;8.25;;;;;;;23.34;64.72;100061.56;4909341;28;97516;-73
2021/07/12 10:25:26;;;;;;;10.13;9.02;;;;;;;23.29;64.78;100058.44;4896171;28;101321;-74
2021/07/12 10:27:54;;;;;;;8.40;7.80;;;;;;;23.37;63.64;100058.59;4898103;28;100639;-73
2021/07/12 10:30:35;;;;;;;7.88;7.28;;;;;;;23.61;64.15;100062.69;4893235;28;96911;-74
2021/07/12 10:33:03;;;;;;;9.00;8.40;;;;;;;23.70;63.28;100057.34;4900357;28;96889;-73
2021/07/12 10:35:52;;;;;;;9.75;8.95;;;;;;;24.09;62.31;100051.06;4907474;28;98190;-74
2021/07/12 10:38:25;;;;;;;9.13;8.43;;;;;;;24.46;61.39;100058.28;4893736;28;97856;-74
2021/07/12 10:40:58;;;;;;;8.73;8.07;;;;;;;24.44;61.25;100050.41;4914357;28;97133;-74
2021/07/12 10:43:42;;;;;;;8.73;8.13;;;;;;;24.30;60.55;100051.69;4921712;28;97505;-74
2021/07/12 10:46:09;;;;;;;9.07;8.38;;;;;;;24.16;61.42;100039.59;4925298;28;98622;-74
2021/07/12 10:48:40;;;;;;;9.32;8.60;;;;;;;24.29;61.81;100025.88;4908444;28;97894;-75
2021/07/12 10:51:16;;;;;;;;;;;;;;;24.08;61.37;100042.16;4900577;28;96997;-74
2021/07/12 10:53:42;;;;;;;8.43;7.82;;;;;;;23.93;60.89;100023.00;4891432;28;97259;-74
2021/07/12 10:56:13;;;;;;;8.35;7.75;;;;;;;23.75;60.31;100035.47;4912451;28;98246;-75
2021/07/12 10:58:40;;;;;;;9.38;8.68;;;;;;;23.60;61.82;100039.56;4895370;28;98428;-75
2021/07/12 11:01:07;;;;;;;9.00;8.32;;;;;;;23.61;61.99;100028.69;4922712;28;97297;-75
2021/07/12 11:03:39;;;;;;;8.85;8.10;;;;;;;23.57;61.29;100023.78;4919155;28;100253;-75
2021/07/12 11:06:09;;;;;;;7.78;7.18;;;;;;;23.60;61.89;100032.38;4920931;28;101623;-74
2021/07/12 11:08:45;;;;;;;8.18;7.57;;;;;;;23.71;61.54;100023.38;4896504;28;97384;-76
2021/07/12 11:11:13;;;;;;;8.38;7.40;;;;;;;23.77;61.24;100027.31;4915550;28;97228;-75
2021/07/12 11:13:47;;;;;;;8.70;7.78;;;;;;;23.75;61.83;100021.25;4900216;28;97403;-76
2021/07/12 11:16:17;;;;;;;8.88;7.82;;;;;;;23.87;61.99;100015.56;4927173;28;100200;-75
2021/07/12 11:18:43;;;;;;;8.45;7.85;;;;;;;23.66;61.52;100023.75;4923044;28;98446;-81
2021/07/12 11:21:10;;;;;;;8.65;7.88;;;;;;;23.50;61.74;100018.13;4882605;28;97176;-80
2021/07/12 11:23:52;;;;;;;7.70;7.20;;;;;;;23.57;62.28;100016.59;4896654;28;97184;-76